Time;durP1;ratioP1;P1;durP2;ratioP2;P2;SDS_P1;SDS_P2;PMS_P1;PMS_P2;Temp;Humidity;BMP_temperature;BMP_pressure;BME280_temperature;BME280_humidity;BME280_pressure;Samples;Min_cycle;Max_cycle;Signal;HPM_P1;HPM_P2
2023/07/18 00:00:19;;;;;;;23.52;12.02;;;;;;;-146.25;100.00;52133.00;2088305;28;36965;-77
2023/07/18 00:01:21;;;;;;;22.10;11.70;;;;;;;-146.25;100.00;52147.19;2087210;28;31804;-77
2023/07/18 00:02:23;;;;;;;23.08;11.60;;;;;;;-146.25;100.00;52145.16;2087466;28;36320;-75
2023/07/18 00:03:26;;;;;;;24.67;11.65;;;;;;;-146.25;100.00;52151.25;2088967;28;32322;-76
2023/07/18 00:04:29;;;;;;;21.02;11.02;;;;;;;-146.25;100.00;52106.66;2088094;28;33291;-77
2023/07/18 00:05:35;;;;;;;20.60;11.80;;;;;;;-146.25;100.00;52157.34;2087838;28;36858;-77
2023/07/18 00:06:40;;;;;;;22.73;11.57;;;;;;;-146.25;100.00;52137.06;2089175;28;21054;-76
2023/07/18 00:07:42;;;;;;;19.83;11.23;;;;;;;-146.25;100.00;52133.00;2087691;28;37442;-76
2023/07/18 00:08:46;;;;;;;22.85;11.38;;;;;;;-146.25;100.00;52147.19;2088474;28;34191;-76
2023/07/18 00:09:48;;;;;;;23.92;11.73;;;;;;;-146.25;100.00;52124.91;2088165;28;35563;-77
2023/07/18 00:10:50;;;;;;;24.63;11.50;;;;;;;-146.25;100.00;52165.44;2087931;28;37265;-76
2023/07/18 00:11:56;;;;;;;25.33;12.02;;;;;;;-146.25;100.00;52157.34;2088116;28;35211;-78
2023/07/18 00:12:58;;;;;;;28.58;11.93;;;;;;;-146.25;100.00;52122.88;2088217;28;33805;-78
2023/07/18 00:14:00;;;;;;;21.98;10.60;;;;;;;-146.25;100.00;52167.47;2088072;28;36982;-77
2023/07/18 00:15:07;;;;;;;20.98;10.80;;;;;;;-146.25;100.00;52169.50;2088785;28;20076;-77
2023/07/18 00:16:13;;;;;;;23.70;11.98;;;;;;;-146.25;100.00;52108.66;2088300;28;36280;-77
2023/07/18 00:17:15;;;;;;;24.25;11.50;;;;;;;-146.25;100.00;52130.97;2088447;28;34048;-77
2023/07/18 00:18:21;;;;;;;26.08;10.40;;;;;;;-146.25;100.00;52157.34;2088285;28;33676;-76
2023/07/18 00:19:23;;;;;;;24.73;11.25;;;;;;;-146.25;100.00;52128.94;2088155;28;33325;-76
2023/07/18 00:20:25;;;;;;;25.08;10.90;;;;;;;-146.25;100.00;52157.34;2088083;28;36034;-76
2023/07/18 00:21:27;;;;;;;21.10;10.00;;;;;;;-146.25;100.00;52133.00;2088028;28;39589;-77
2023/07/18 00:22:29;;;;;;;16.80;9.52;;;;;;;-146.25;100.00;52169.50;2087799;28;36914;-76
2023/07/18 00:23:31;;;;;;;24.63;11.38;;;;;;;-146.25;100.00;52124.91;2088461;28;32374;-76
2023/07/18 00:24:33;;;;;;;25.15;11.45;;;;;;;-146.25;100.00;52153.28;2088207;28;36019;-75
2023/07/18 00:25:36;;;;;;;22.63;10.43;;;;;;;-146.25;100.00;52153.28;2088877;28;35136;-77
2023/07/18 00:26:39;;;;;;;27.25;12.25;;;;;;;-146.25;100.00;52128.94;2088120;28;35194;-78
2023/07/18 00:27:40;;;;;;;22.83;11.23;;;;;;;-146.25;100.00;52104.63;2088901;28;20122;-76
2023/07/18 00:28:44;;;;;;;22.90;11.50;;;;;;;-146.25;100.00;52161.38;2096573;28;20088;-74
2023/07/18 00:29:46;;;;;;;23.35;10.93;;;;;;;-146.25;100.00;52135.03;2094853;28;25901;-77
2023/07/18 00:30:49;;;;;;;27.20;11.98;;;;;;;-146.25;100.00;52108.66;2095856;28;20146;-77
2023/07/18 00:31:54;;;;;;;26.98;12.20;;;;;;;-146.25;100.00;52130.97;2088430;28;24289;-76
2023/07/18 00:32:58;;;;;;;22.10;10.27;;;;;;;-146.25;100.00;52173.56;2095134;28;37209;-76
2023/07/18 00:34:00;;;;;;;22.85;10.82;;;;;;;-146.25;100.00;52137.06;2096079;28;20890;-75
2023/07/18 00:35:03;;;;;;;23.23;11.90;;;;;;;-146.25;100.00;52116.78;2087895;28;33896;-76
2023/07/18 00:36:06;;;;;;;27.25;12.38;;;;;;;-146.25;100.00;52126.91;2087565;28;33148;-78
2023/07/18 00:37:11;;;;;;;24.95;11.77;;;;;;;-146.25;100.00;52130.97;2088096;28;20071;-78
2023/07/18 00:38:13;;;;;;;22.00;10.88;;;;;;;-146.25;100.00;52137.06;2088469;28;28712;-78
2023/07/18 00:39:15;;;;;;;22.35;10.20;;;;;;;-146.25;100.00;52141.13;2088353;28;27250;-76
2023/07/18 00:40:21;;;;;;;22.65;10.43;;;;;;;-146.25;100.00;52165.44;2087673;28;33179;-76
2023/07/18 00:41:24;;;;;;;21.35;9.88;;;;;;;-146.25;100.00;52179.63;2088281;28;20878;-76
2023/07/18 00:42:29;;;;;;;23.35;11.05;;;;;;;-146.25;100.00;52153.28;2096175;28;20794;-76
2023/07/18 00:43:33;;;;;;;23.30;11.27;;;;;;;-146.25;100.00;52177.59;2088292;28;28707;-76
2023/07/18 00:44:37;;;;;;;22.63;10.55;;;;;;;-146.25;100.00;52149.22;2088615;28;20782;-78
2023/07/18 00:45:41;;;;;;;21.70;10.50;;;;;;;-146.25;100.00;52167.47;2095950;28;20076;-76
2023/07/18 00:46:43;;;;;;;26.20;12.77;;;;;;;-146.25;100.00;52163.41;2095717;28;33367;-76
2023/07/18 00:47:46;;;;;;;28.45;12.48;;;;;;;-146.25;100.00;52173.56;2095763;28;25265;-77
2023/07/18 00:48:48;;;;;;;23.13;11.57;;;;;;;-146.25;100.00;52110.69;2096567;28;20045;-78
2023/07/18 00:49:51;;;;;;;26.65;12.90;;;;;;;-146.25;100.00;52177.59;2079098;28;20092;-78
2023/07/18 00:50:54;;;;;;;22.15;11.52;;;;;;;-146.25;100.00;52147.19;2080619;28;20038;-78
2023/07/18 00:51:56;;;;;;;19.05;10.52;;;;;;;-146.25;100.00;52122.88;2095895;28;20045;-76
2023/07/18 00:53:00;;;;;;;23.35;12.00;;;;;;;-146.25;100.00;52193.81;2079257;28;33046;-77
2023/07/18 00:54:04;;;;;;;22.00;10.70;;;;;;;-146.25;100.00;52120.84;2080208;28;25433;-76
2023/07/18 00:55:10;;;;;;;21.60;11.45;;;;;;;-146.25;100.00;52147.19;2095629;28;28376;-76
2023/07/18 00:56:14;;;;;;;26.80;12.85;;;;;;;-146.25;100.00;52135.03;2078805;28;23192;-78
2023/07/18 00:57:16;;;;;;;31.65;12.85;;;;;;;-146.25;100.00;52151.25;2072537;28;22472;-77
2023/07/18 00:58:18;;;;;;;28.30;13.18;;;;;;;-146.25;100.00;52153.28;2087604;28;25805;-77
2023/07/18 00:59:22;;;;;;;25.58;12.40;;;;;;;-146.25;100.00;52155.31;2088365;28;28054;-78
2023/07/18 01:00:25;;;;;;;25.20;12.18;;;;;;;-146.25;100.00;52135.03;2095803;28;20045;-77
2023/07/18 01:01:27;;;;;;;28.08;12.60;;;;;;;-146.25;100.00;52143.13;2087079;28;30790;-77
2023/07/18 01:02:30;;;;;;;32.83;13.70;;;;;;;-146.25;100.00;52143.13;2087358;28;20045;-77
2023/07/18 01:03:32;;;;;;;24.75;12.48;;;;;;;-146.25;100.00;52143.13;2087435;28;26102;-76
2023/07/18 01:04:36;;;;;;;26.85;11.68;;;;;;;-146.25;100.00;52193.81;2087274;28;20052;-78
2023/07/18 01:05:40;;;;;;;21.80;11.05;;;;;;;-146.25;100.00;52098.53;2096281;28;20938;-77
2023/07/18 01:08:17;;;;;;;25.50;12.27;;;;;;;-146.25;100.00;52122.88;2063463;28;28949;-73
2023/07/18 01:09:19;;;;;;;22.88;12.43;;;;;;;-146.25;100.00;52153.28;2063139;28;30801;-73
2023/07/18 01:10:25;;;;;;;28.75;12.23;;;;;;;-146.25;100.00;52177.59;2062612;28;29517;-73
2023/07/18 01:11:27;;;;;;;30.00;12.93;;;;;;;-146.25;100.00;52149.22;2056550;28;20055;-73
2023/07/18 01:12:28;;;;;;;34.25;12.75;;;;;;;-146.25;100.00;52157.34;2063504;28;20054;-73
2023/07/18 01:13:34;;;;;;;24.92;12.23;;;;;;;-146.25;100.00;52122.88;2063747;28;20082;-74
2023/07/18 01:14:40;;;;;;;26.05;12.50;;;;;;;-146.25;100.00;52173.56;2062393;28;33609;-73
2023/07/18 01:15:43;;;;;;;31.42;13.40;;;;;;;-146.25;100.00;52155.31;2062921;28;31437;-74
2023/07/18 01:16:45;;;;;;;19.48;10.82;;;;;;;-146.25;100.00;52133.00;2063756;28;20042;-73
2023/07/18 01:17:48;;;;;;;26.80;12.13;;;;;;;-146.25;100.00;52143.13;2062580;28;33787;-74
2023/07/18 01:18:54;;;;;;;19.35;10.80;;;;;;;-146.25;100.00;52128.94;2062920;28;25796;-74
2023/07/18 01:19:57;;;;;;;18.48;10.32;;;;;;;-146.25;100.00;52159.34;2070211;28;31454;-74
2023/07/18 01:21:01;;;;;;;23.23;10.80;;;;;;;-146.25;100.00;52177.59;2063340;28;28380;-74
2023/07/18 01:22:03;;;;;;;21.52;11.80;;;;;;;-146.25;100.00;52161.38;2063849;28;27158;-73
2023/07/18 01:23:05;;;;;;;23.25;12.10;;;;;;;-146.25;100.00;52112.72;2062852;28;24044;-74
2023/07/18 01:24:08;;;;;;;27.52;11.15;;;;;;;-146.25;100.00;52167.47;2063757;28;20043;-74
2023/07/18 01:25:14;;;;;;;23.23;10.82;;;;;;;-146.25;100.00;52126.91;2063478;28;25193;-74
2023/07/18 01:26:18;;;;;;;23.60;11.50;;;;;;;-146.25;100.00;52155.31;2063175;28;30264;-74
2023/07/18 01:27:20;;;;;;;23.08;11.10;;;;;;;-146.25;100.00;52167.47;2064076;28;20069;-74
2023/07/18 01:28:21;;;;;;;24.65;12.02;;;;;;;-146.25;100.00;52124.91;2071111;28;33561;-74
2023/07/18 01:29:24;;;;;;;21.70;10.98;;;;;;;-146.25;100.00;52165.44;2063502;28;25349;-73
2023/07/18 01:30:28;;;;;;;26.85;11.98;;;;;;;-146.25;100.00;52133.00;2063706;28;23386;-74
2023/07/18 01:31:30;;;;;;;23.33;11.75;;;;;;;-146.25;100.00;52183.69;2063266;28;28278;-73
2023/07/18 01:32:33;;;;;;;20.75;10.68;;;;;;;-146.25;100.00;52120.84;2063682;28;31480;-74
2023/07/18 01:33:36;;;;;;;23.60;12.25;;;;;;;-146.25;100.00;52141.13;2063453;28;30984;-73
2023/07/18 01:34:40;;;;;;;29.30;12.65;;;;;;;-146.25;100.00;52185.72;2070797;28;25867;-74
2023/07/18 01:35:42;;;;;;;27.77;13.38;;;;;;;-146.25;100.00;52157.34;2062788;28;27147;-73
2023/07/18 01:36:44;;;;;;;27.17;12.50;;;;;;;-146.25;100.00;52197.88;2063192;28;29577;-73
2023/07/18 01:37:47;;;;;;;28.73;12.60;;;;;;;-146.25;100.00;52177.59;2064593;28;20093;-73
2023/07/18 01:38:48;;;;;;;23.38;11.93;;;;;;;-146.25;100.00;52195.84;2065341;28;27769;-74
2023/07/18 01:39:50;;;;;;;29.88;12.30;;;;;;;-146.25;100.00;52175.56;2062771;28;21007;-73
2023/07/18 01:40:52;;;;;;;29.95;13.50;;;;;;;-146.25;100.00;52124.91;2062275;28;29537;-73
2023/07/18 01:41:54;;;;;;;26.70;12.38;;;;;;;-146.25;100.00;52151.25;2061898;28;25405;-73
2023/07/18 01:42:57;;;;;;;25.20;12.25;;;;;;;-146.25;100.00;52167.47;2071038;28;35046;-73
2023/07/18 01:44:01;;;;;;;33.80;14.93;;;;;;;-146.25;100.00;52185.72;2063428;28;25324;-73
2023/07/18 01:45:03;;;;;;;28.95;13.88;;;;;;;-146.25;100.00;52181.66;2070858;28;37503;-74
2023/07/18 01:46:05;;;;;;;28.38;12.75;;;;;;;-146.25;100.00;52185.72;2070828;28;20041;-73
2023/07/18 01:47:07;;;;;;;28.42;13.98;;;;;;;-146.25;100.00;52163.41;2070851;28;26735;-73
2023/07/18 01:48:09;;;;;;;30.17;14.70;;;;;;;-146.25;100.00;52143.13;2070312;28;30366;-73
2023/07/18 01:49:13;;;;;;;33.92;13.00;;;;;;;-146.25;100.00;52163.41;2063214;28;20047;-73
2023/07/18 01:50:15;;;;;;;30.40;13.43;;;;;;;-146.25;100.00;52157.34;2062693;28;27250;-72
2023/07/18 01:51:17;;;;;;;29.23;13.38;;;;;;;-146.25;100.00;52135.03;2062579;28;26058;-73
2023/07/18 01:52:19;;;;;;;30.17;13.68;;;;;;;-146.25;100.00;52143.13;2063326;28;20109;-73
2023/07/18 01:53:22;;;;;;;30.80;14.27;;;;;;;-146.25;100.00;52185.72;2063630;28;30032;-73
2023/07/18 01:54:24;;;;;;;31.83;14.80;;;;;;;-146.25;100.00;52135.03;2063325;28;26844;-73
2023/07/18 01:55:31;;;;;;;24.55;12.05;;;;;;;-146.25;100.00;52179.63;2064379;28;20039;-73
2023/07/18 01:56:38;;;;;;;31.17;13.80;;;;;;;-146.25;100.00;52155.31;2063125;28;20089;-73
2023/07/18 01:57:40;;;;;;;29.25;14.52;;;;;;;-146.25;100.00;52165.44;2055792;28;20182;-73
2023/07/18 01:58:44;;;;;;;30.65;14.02;;;;;;;-146.25;100.00;52165.44;2054587;28;20082;-74
2023/07/18 01:59:46;;;;;;;32.13;14.07;;;;;;;-146.25;100.00;52177.59;2047344;28;20182;-74
2023/07/18 02:00:47;;;;;;;26.65;12.75;;;;;;;-146.25;100.00;52181.66;2046162;28;20048;-75
2023/07/18 02:01:51;;;;;;;23.73;11.57;;;;;;;-146.25;100.00;52149.22;2062913;28;24630;-73
2023/07/18 02:02:53;;;;;;;28.88;12.43;;;;;;;-146.25;100.00;52195.84;2062493;28;31409;-72
2023/07/18 02:03:55;;;;;;;31.17;13.63;;;;;;;-146.25;100.00;52179.63;2063099;28;20863;-72
2023/07/18 02:04:58;;;;;;;26.52;12.70;;;;;;;-146.25;100.00;52147.19;2061916;28;22023;-73
2023/07/18 02:06:00;;;;;;;22.88;11.52;;;;;;;-146.25;100.00;52155.31;2063023;28;25289;-73
2023/07/18 02:07:02;;;;;;;27.15;12.55;;;;;;;-146.25;100.00;52171.53;2063187;28;25399;-72
2023/07/18 02:08:04;;;;;;;25.40;12.00;;;;;;;-146.25;100.00;52169.50;2063714;28;26359;-72
2023/07/18 02:09:09;;;;;;;26.38;12.02;;;;;;;-146.25;100.00;52159.34;2062544;28;20057;-72
2023/07/18 02:10:13;;;;;;;29.15;12.07;;;;;;;-146.25;100.00;52108.66;2063333;28;20046;-73
2023/07/18 02:11:15;;;;;;;24.70;11.68;;;;;;;-146.25;100.00;52163.41;2070325;28;32423;-73
2023/07/18 02:12:17;;;;;;;31.08;14.10;;;;;;;-146.25;100.00;52153.28;2078551;28;24267;-72
2023/07/18 02:13:19;;;;;;;29.75;13.88;;;;;;;-146.25;100.00;52124.91;2071059;28;20204;-74
2023/07/18 02:14:22;;;;;;;27.95;12.70;;;;;;;-146.25;100.00;52165.44;2063080;28;20137;-72
2023/07/18 02:15:24;;;;;;;27.05;12.40;;;;;;;-146.25;100.00;52155.31;2054659;28;23536;-73
2023/07/18 02:16:32;;;;;;;29.73;13.88;;;;;;;-146.25;100.00;52155.31;2062755;28;28304;-72
2023/07/18 02:17:34;;;;;;;25.23;11.80;;;;;;;-146.25;100.00;52157.34;2062610;28;26362;-73
2023/07/18 02:18:36;;;;;;;27.00;12.23;;;;;;;-146.25;100.00;52145.16;2063620;28;20694;-73
2023/07/18 02:19:37;;;;;;;24.38;11.50;;;;;;;-146.25;100.00;52165.44;2062854;28;30563;-72
2023/07/18 02:20:42;;;;;;;27.27;13.30;;;;;;;-146.25;100.00;52161.38;2063610;28;20039;-72
2023/07/18 02:21:44;;;;;;;30.58;13.63;;;;;;;-146.25;100.00;52143.13;2063550;28;20540;-72
2023/07/18 02:22:48;;;;;;;26.30;13.05;;;;;;;-146.25;100.00;52153.28;2062643;28;29406;-73
2023/07/18 02:23:52;;;;;;;22.85;11.57;;;;;;;-146.25;100.00;52149.22;2063185;28;29359;-73
2023/07/18 02:24:54;;;;;;;29.23;12.85;;;;;;;-146.25;100.00;52161.38;2062805;28;23236;-72
2023/07/18 02:25:55;;;;;;;20.23;10.82;;;;;;;-146.25;100.00;52175.56;2054336;28;28041;-72
2023/07/18 02:26:58;;;;;;;16.05;9.23;;;;;;;-146.25;100.00;52143.13;2063718;28;20173;-74
2023/07/18 02:28:00;;;;;;;24.50;11.38;;;;;;;-146.25;100.00;52139.09;2063010;28;20073;-73
2023/07/18 02:29:04;;;;;;;23.48;11.82;;;;;;;-146.25;100.00;52128.94;2063539;28;20046;-72
2023/07/18 02:30:09;;;;;;;28.35;12.88;;;;;;;-146.25;100.00;52120.84;2071105;28;20050;-73
2023/07/18 02:31:12;;;;;;;29.52;11.82;;;;;;;-146.25;100.00;52149.22;2062729;28;20112;-71
2023/07/18 02:32:16;;;;;;;29.55;12.82;;;;;;;-146.25;100.00;52161.38;2062860;28;24530;-74
2023/07/18 02:33:20;;;;;;;31.92;13.52;;;;;;;-146.25;100.00;52171.53;2063688;28;20129;-72
2023/07/18 02:34:25;;;;;;;27.58;12.98;;;;;;;-146.25;100.00;52159.34;2062647;28;33487;-72
2023/07/18 02:35:27;;;;;;;29.02;12.77;;;;;;;-146.25;100.00;52153.28;2054648;28;20062;-73
2023/07/18 02:36:29;;;;;;;24.13;12.13;;;;;;;-146.25;100.00;52199.91;2055007;28;29414;-73
2023/07/18 02:37:33;;;;;;;27.05;13.82;;;;;;;-146.25;100.00;52151.25;2063363;28;20039;-72
2023/07/18 02:38:34;;;;;;;26.27;13.02;;;;;;;-146.25;100.00;52153.28;2062887;28;26698;-73
2023/07/18 02:39:38;;;;;;;31.48;14.57;;;;;;;-146.25;100.00;52165.44;2062993;28;25687;-73
2023/07/18 02:40:42;;;;;;;30.05;13.85;;;;;;;-146.25;100.00;52159.34;2062680;28;33435;-72
2023/07/18 02:41:44;;;;;;;31.23;14.27;;;;;;;-146.25;100.00;52153.28;2055425;28;25355;-72
2023/07/18 02:42:48;;;;;;;32.97;14.70;;;;;;;-146.25;100.00;52165.44;2063397;28;20043;-73
2023/07/18 02:43:50;;;;;;;32.35;14.32;;;;;;;-146.25;100.00;52151.25;2078408;28;31348;-73
2023/07/18 02:44:55;;;;;;;28.63;14.38;;;;;;;-146.25;100.00;52189.78;2070405;28;27207;-74
2023/07/18 02:45:56;;;;;;;26.05;13.32;;;;;;;-146.25;100.00;52163.41;2070376;28;25898;-74
2023/07/18 02:46:58;;;;;;;24.83;12.63;;;;;;;-146.25;100.00;52210.03;2063088;28;33732;-74
2023/07/18 02:48:03;;;;;;;22.13;11.43;;;;;;;-146.25;100.00;52171.53;2062478;28;20196;-73
2023/07/18 02:49:05;;;;;;;24.42;12.43;;;;;;;-146.25;100.00;52155.31;2062448;28;31106;-74
2023/07/18 02:50:08;;;;;;;36.05;14.25;;;;;;;-146.25;100.00;52161.38;2062729;28;28829;-72
2023/07/18 02:51:10;;;;;;;35.00;15.05;;;;;;;-146.25;100.00;52155.31;2062872;28;20048;-74
2023/07/18 02:52:12;;;;;;;32.88;13.40;;;;;;;-146.25;100.00;52206.00;2062904;28;20128;-73
2023/07/18 02:53:16;;;;;;;29.05;14.55;;;;;;;-146.25;100.00;52169.50;2063386;28;33719;-74
2023/07/18 02:54:18;;;;;;;30.50;13.55;;;;;;;-146.25;100.00;52189.78;2064097;28;27615;-73
2023/07/18 02:55:19;;;;;;;24.83;12.27;;;;;;;-146.25;100.00;52193.81;2063574;28;28901;-74
2023/07/18 02:56:22;;;;;;;30.48;14.27;;;;;;;-146.25;100.00;52183.69;2063694;28;27949;-74
2023/07/18 02:57:29;;;;;;;28.17;13.85;;;;;;;-146.25;100.00;52177.59;2071814;28;26490;-74
2023/07/18 02:58:31;;;;;;;30.30;14.23;;;;;;;-146.25;100.00;52167.47;2071860;28;20849;-73
2023/07/18 02:59:32;;;;;;;24.42;12.10;;;;;;;-146.25;100.00;52175.56;2064023;28;24029;-73
2023/07/18 03:00:36;;;;;;;26.33;12.90;;;;;;;-146.25;100.00;52185.72;2064198;28;20306;-72
2023/07/18 03:01:38;;;;;;;27.77;13.68;;;;;;;-146.25;100.00;52193.81;2071915;28;20124;-74
2023/07/18 03:02:41;;;;;;;27.05;13.20;;;;;;;-146.25;100.00;52195.84;2072353;28;22730;-73
2023/07/18 03:03:43;;;;;;;29.55;13.30;;;;;;;-146.25;100.00;52153.28;2064700;28;25288;-72
2023/07/18 03:04:50;;;;;;;27.05;13.18;;;;;;;-146.25;100.00;52179.63;2064399;28;20066;-75
2023/07/18 03:05:53;;;;;;;34.03;14.20;;;;;;;-146.25;100.00;52185.72;2064240;28;21138;-74
2023/07/18 03:06:57;;;;;;;28.77;12.93;;;;;;;-146.25;100.00;52189.78;2056812;28;20165;-72
2023/07/18 03:07:59;;;;;;;27.88;12.13;;;;;;;-146.25;100.00;52151.25;2056834;28;20526;-72
2023/07/18 03:09:01;;;;;;;26.90;13.70;;;;;;;-146.25;100.00;52157.34;2055565;28;30673;-73
2023/07/18 03:10:07;;;;;;;33.63;14.88;;;;;;;-146.25;100.00;52139.09;2063444;28;35464;-72
2023/07/18 03:11:09;;;;;;;30.58;13.73;;;;;;;-146.25;100.00;52155.31;2072088;28;20835;-72
2023/07/18 03:12:11;;;;;;;27.33;13.65;;;;;;;-146.25;100.00;52157.34;2072535;28;20124;-72
2023/07/18 03:13:13;;;;;;;31.20;12.70;;;;;;;-146.25;100.00;52195.84;2064356;28;25306;-73
2023/07/18 03:14:15;;;;;;;28.27;12.57;;;;;;;-146.25;100.00;52181.66;2056132;28;20081;-72
2023/07/18 03:15:19;;;;;;;44.67;15.60;;;;;;;-146.25;100.00;52181.66;2055970;28;26772;-72
2023/07/18 03:16:21;;;;;;;30.20;14.77;;;;;;;-146.25;100.00;52139.09;2063446;28;30674;-75
2023/07/18 03:17:23;;;;;;;27.60;14.52;;;;;;;-146.25;100.00;52181.66;2064205;28;21003;-71
2023/07/18 03:18:27;;;;;;;28.73;13.95;;;;;;;-146.25;100.00;52179.63;2072083;28;28594;-72
2023/07/18 03:19:31;;;;;;;31.98;14.30;;;;;;;-146.25;100.00;52187.75;2064384;28;26373;-73
2023/07/18 03:20:34;;;;;;;32.78;15.20;;;;;;;-146.25;100.00;52149.22;2064251;28;20245;-73
2023/07/18 03:21:38;;;;;;;32.10;15.43;;;;;;;-146.25;100.00;52189.78;2063566;28;22459;-73
2023/07/18 03:22:40;;;;;;;33.72;14.93;;;;;;;-146.25;100.00;52193.81;2055789;28;29146;-74
2023/07/18 03:23:43;;;;;;;33.00;15.13;;;;;;;-146.25;100.00;52183.69;2056324;28;27946;-73
2023/07/18 03:24:47;;;;;;;27.90;14.20;;;;;;;-146.25;100.00;52197.88;2063790;28;20920;-73
2023/07/18 03:25:49;;;;;;;31.13;14.52;;;;;;;-146.25;100.00;52214.09;2055972;28;29073;-72
2023/07/18 03:26:53;;;;;;;32.33;15.63;;;;;;;-146.25;100.00;52171.53;2064070;28;25324;-72
2023/07/18 03:27:54;;;;;;;31.73;14.73;;;;;;;-146.25;100.00;52195.84;2071662;28;31506;-72
2023/07/18 03:28:56;;;;;;;27.25;14.45;;;;;;;-146.25;100.00;52185.72;2079868;28;27393;-72
2023/07/18 03:30:01;;;;;;;24.25;13.25;;;;;;;-146.25;100.00;52203.97;2072110;28;20050;-72
2023/07/18 03:31:04;;;;;;;27.80;13.75;;;;;;;-146.25;100.00;52171.53;2065016;28;20880;-71
2023/07/18 03:32:09;;;;;;;31.48;14.48;;;;;;;-146.25;100.00;52210.03;2063715;28;20043;-72
2023/07/18 03:33:11;;;;;;;31.75;14.45;;;;;;;-146.25;100.00;52175.56;2055452;28;33050;-74
2023/07/18 03:34:13;;;;;;;27.90;14.50;;;;;;;-146.25;100.00;52214.09;2063467;28;20046;-71
2023/07/18 03:35:17;;;;;;;27.45;13.75;;;;;;;-146.25;100.00;52169.50;2071976;28;20942;-73
2023/07/18 03:36:20;;;;;;;28.70;13.93;;;;;;;-146.25;100.00;52171.53;2064124;28;20039;-72
2023/07/18 03:37:26;;;;;;;29.20;14.15;;;;;;;-146.25;100.00;52165.44;2064638;28;20055;-72
2023/07/18 03:38:29;;;;;;;31.88;13.68;;;;;;;-146.25;100.00;52177.59;2063508;28;28553;-72
2023/07/18 03:39:30;;;;;;;31.48;14.55;;;;;;;-146.25;100.00;52173.56;2048247;28;21643;-73
2023/07/18 03:40:38;;;;;;;35.47;15.05;;;;;;;-146.25;100.00;52214.09;2056707;28;20843;-75
2023/07/18 03:41:40;;;;;;;31.52;13.90;;;;;;;-146.25;100.00;52187.75;2063913;28;27723;-73
2023/07/18 03:42:43;;;;;;;32.53;14.93;;;;;;;-146.25;100.00;52206.00;2063068;28;32290;-72
2023/07/18 03:43:46;;;;;;;29.58;14.45;;;;;;;-146.25;100.00;52193.81;2071437;28;38382;-72
2023/07/18 03:44:47;;;;;;;32.55;15.02;;;;;;;-146.25;100.00;52153.28;2070894;28;32789;-72
2023/07/18 03:45:50;;;;;;;28.58;14.70;;;;;;;-146.25;100.00;52197.88;2064156;28;34465;-73
2023/07/18 03:46:54;;;;;;;28.00;14.35;;;;;;;-146.25;100.00;52169.50;2063446;28;35306;-72
2023/07/18 03:48:06;;;;;;;29.95;13.05;;;;;;;-146.25;100.00;52147.19;2055706;28;33640;-72
2023/07/18 03:49:08;;;;;;;28.90;13.93;;;;;;;-146.25;100.00;52177.59;2056184;28;38134;-72
2023/07/18 03:50:14;;;;;;;25.75;13.48;;;;;;;-146.25;100.00;52171.53;2063667;28;31750;-72
2023/07/18 03:51:16;;;;;;;27.50;12.77;;;;;;;-146.25;100.00;52169.50;2054744;28;35880;-72
2023/07/18 03:52:18;;;;;;;33.55;14.15;;;;;;;-146.25;100.00;52175.56;2055646;28;35627;-72
2023/07/18 03:53:20;;;;;;;28.60;13.52;;;;;;;-146.25;100.00;52181.66;2062679;28;35326;-73
2023/07/18 03:54:22;;;;;;;25.73;13.73;;;;;;;-146.25;100.00;52210.03;2063226;28;36176;-72
2023/07/18 03:55:23;;;;;;;26.55;13.60;;;;;;;-146.25;100.00;52171.53;2063878;28;33882;-71
2023/07/18 03:56:26;;;;;;;31.63;13.13;;;;;;;-146.25;100.00;52185.72;2071676;28;33574;-74
2023/07/18 03:57:30;;;;;;;26.00;13.10;;;;;;;-146.25;100.00;52197.88;2070582;28;39628;-73
2023/07/18 03:58:34;;;;;;;23.15;12.60;;;;;;;-146.25;100.00;52165.44;2071382;28;28001;-73
2023/07/18 03:59:35;;;;;;;22.10;12.13;;;;;;;-146.25;100.00;52137.06;2070831;28;35978;-72
2023/07/18 04:00:37;;;;;;;28.02;12.50;;;;;;;-146.25;100.00;52195.84;2063869;28;34280;-72
2023/07/18 04:01:41;;;;;;;24.52;11.98;;;;;;;-146.25;100.00;52193.81;2063874;28;31799;-73
2023/07/18 04:02:48;;;;;;;21.23;11.77;;;;;;;-146.25;100.00;52169.50;2063473;28;38604;-72
2023/07/18 04:03:50;;;;;;;24.92;12.20;;;;;;;-146.25;100.00;52187.75;2063431;28;33849;-73
2023/07/18 04:04:52;;;;;;;21.65;11.85;;;;;;;-146.25;100.00;52169.50;2062213;28;33678;-73
2023/07/18 04:05:54;;;;;;;22.60;11.13;;;;;;;-146.25;100.00;52203.97;2063828;28;37223;-73
2023/07/18 04:06:56;;;;;;;23.02;11.68;;;;;;;-146.25;100.00;52159.34;2063213;28;34243;-74
2023/07/18 04:07:57;;;;;;;21.25;11.65;;;;;;;-146.25;100.00;52193.81;2062971;28;37291;-74
2023/07/18 04:09:00;;;;;;;20.38;11.32;;;;;;;-146.25;100.00;52137.06;2064400;28;31798;-75
2023/07/18 04:10:01;;;;;;;22.73;11.15;;;;;;;-146.25;100.00;52214.09;2064198;28;31336;-73
2023/07/18 04:11:05;;;;;;;20.60;11.32;;;;;;;-146.25;100.00;52185.72;2063978;28;36147;-72
2023/07/18 04:12:10;;;;;;;22.98;11.32;;;;;;;-146.25;100.00;52171.53;2063623;28;34652;-73
2023/07/18 04:13:11;;;;;;;25.70;11.25;;;;;;;-146.25;100.00;52181.66;2062826;28;37640;-73
2023/07/18 04:14:14;;;;;;;25.13;10.98;;;;;;;-146.25;100.00;52169.50;2063374;28;34316;-72
2023/07/18 04:15:16;;;;;;;21.15;11.55;;;;;;;-146.25;100.00;52195.84;2063422;28;34336;-72
2023/07/18 04:16:18;;;;;;;21.95;10.85;;;;;;;-146.25;100.00;52232.34;2055108;28;33454;-73
2023/07/18 04:17:20;;;;;;;25.60;11.00;;;;;;;-146.25;100.00;52157.34;2063390;28;36677;-73
2023/07/18 04:18:23;;;;;;;22.10;11.00;;;;;;;-146.25;100.00;52203.97;2064248;28;20039;-73
2023/07/18 04:19:25;;;;;;;18.85;10.43;;;;;;;-146.25;100.00;52222.22;2063869;28;38415;-72
2023/07/18 04:20:27;;;;;;;20.45;10.10;;;;;;;-146.25;100.00;52189.78;2063340;28;33190;-73
2023/07/18 04:21:28;;;;;;;19.42;10.40;;;;;;;-146.25;100.00;52173.56;2063496;28;38804;-73
2023/07/18 04:22:33;;;;;;;23.45;10.52;;;;;;;-146.25;100.00;52181.66;2064247;28;20831;-73
2023/07/18 04:23:34;;;;;;;18.52;10.63;;;;;;;-146.25;100.00;52181.66;2064082;28;35879;-73
2023/07/18 04:24:36;;;;;;;17.60;10.05;;;;;;;-146.25;100.00;52214.09;2062651;28;37434;-72
2023/07/18 04:25:56;;;;;;;17.40;10.15;;;;;;;-146.25;100.00;52193.81;2062992;28;35270;-73
2023/07/18 04:26:58;;;;;;;19.45;9.80;;;;;;;-146.25;100.00;52199.91;2064009;28;37207;-73
2023/07/18 04:28:00;;;;;;;22.17;10.52;;;;;;;-146.25;100.00;52191.81;2055802;28;20043;-73
2023/07/18 04:29:06;;;;;;;17.23;8.45;;;;;;;-146.25;100.00;52193.81;2055881;28;20047;-73
2023/07/18 04:30:12;;;;;;;18.23;9.90;;;;;;;-146.25;100.00;52199.91;2064467;28;20039;-72
2023/07/18 04:31:16;;;;;;;18.40;9.85;;;;;;;-146.25;100.00;52197.88;2063945;28;35227;-72
2023/07/18 04:32:20;;;;;;;16.10;9.65;;;;;;;-146.25;100.00;52173.56;2063812;28;36972;-74
2023/07/18 04:33:22;;;;;;;15.38;8.85;;;;;;;-146.25;100.00;52199.91;2064021;28;34456;-73
2023/07/18 04:34:24;;;;;;;16.15;8.88;;;;;;;-146.25;100.00;52228.28;2063918;28;31707;-72
2023/07/18 04:35:28;;;;;;;18.45;8.50;;;;;;;-146.25;100.00;52193.81;2063880;28;20955;-72
2023/07/18 04:36:33;;;;;;;12.80;8.20;;;;;;;-146.25;100.00;52226.25;2063704;28;32581;-72
2023/07/18 04:37:35;;;;;;;12.82;6.85;;;;;;;-146.25;100.00;52183.69;2063713;28;35774;-73
2023/07/18 04:38:41;;;;;;;12.35;7.28;;;;;;;-146.25;100.00;52240.47;2063561;28;37414;-72
2023/07/18 04:39:43;;;;;;;10.65;6.60;;;;;;;-146.25;100.00;52234.38;2064192;28;20034;-74
2023/07/18 04:40:45;;;;;;;11.88;6.55;;;;;;;-146.25;100.00;52208.03;2064376;28;20155;-71
2023/07/18 04:41:47;;;;;;;11.38;7.45;;;;;;;-146.25;100.00;52179.63;2055228;28;22597;-73